createdAt,value
2023-04-20T00:00:44.121Z,101052.79
2023-04-20T00:04:21.686Z,101047.98
2023-04-20T00:07:36.831Z,101050.98
2023-04-20T00:11:10.159Z,101049.10
2023-04-20T00:15:21.858Z,101046.13
2023-04-20T00:18:50.995Z,101048.27
2023-04-20T00:22:10.294Z,101042.94
2023-04-20T00:26:05.313Z,101041.77
2023-04-20T00:29:25.521Z,101043.61
2023-04-20T00:33:26.831Z,101045.50
2023-04-20T00:37:05.536Z,101043.26
2023-04-20T00:40:43.717Z,101045.61
2023-04-20T00:44:19.066Z,101047.97
2023-04-20T00:47:58.880Z,101051.88
2023-04-20T00:51:18.719Z,101055.20
2023-04-20T00:55:14.891Z,101054.58
2023-04-20T00:58:44.598Z,101057.06
2023-04-20T01:02:12.217Z,101054.48
2023-04-20T01:05:50.501Z,101053.66
2023-04-20T01:09:27.668Z,101051.15
2023-04-20T01:13:12.402Z,101052.32
2023-04-20T01:16:58.526Z,101051.21
2023-04-20T01:20:43.220Z,101046.89
2023-04-20T01:24:32.408Z,101045.81
2023-04-20T01:28:04.266Z,101045.96
2023-04-20T01:31:24.644Z,101042.01
2023-04-20T01:35:15.564Z,101039.41
2023-04-20T01:38:53.238Z,101040.81
2023-04-20T01:42:28.885Z,101039.81
2023-04-20T01:46:06.634Z,101035.16
2023-04-20T01:49:44.478Z,101033.42
2023-04-20T01:53:11.005Z,101036.08
2023-04-20T01:57:10.023Z,101032.70
2023-04-20T02:00:30.486Z,101037.70
2023-04-20T02:04:17.222Z,101038.31
2023-04-20T02:07:36.177Z,101043.39
2023-04-20T02:11:36.705Z,101042.30
2023-04-20T02:15:13.304Z,101037.61
2023-04-20T02:18:34.917Z,101040.34
2023-04-20T02:22:36.694Z,101038.14
2023-04-20T02:26:24.235Z,101034.48
2023-04-20T02:29:51.925Z,101035.67
2023-04-20T02:33:40.111Z,101038.46
2023-04-20T02:37:10.616Z,101038.61
2023-04-20T02:40:55.007Z,101039.63
2023-04-20T02:44:26.228Z,101038.07
2023-04-20T02:47:41.657Z,101044.45
2023-04-20T02:51:44.707Z,101046.02
2023-04-20T02:55:16.259Z,101049.77
2023-04-20T02:58:41.778Z,101049.58
2023-04-20T03:03:01.853Z,101044.11
2023-04-20T03:06:32.747Z,101043.89
2023-04-20T03:09:58.465Z,101042.51
2023-04-20T03:13:49.531Z,101046.36
2023-04-20T03:17:30.960Z,101044.02
2023-04-20T03:20:47.925Z,101043.92
2023-04-20T03:24:25.655Z,101050.61
2023-04-20T03:28:01.910Z,101050.23
2023-04-20T03:32:04.978Z,101056.95
2023-04-20T03:35:25.094Z,101055.34
2023-04-20T03:39:11.649Z,101058.31
2023-04-20T03:43:05.536Z,101060.38
2023-04-20T03:46:33.557Z,101060.92
2023-04-20T03:49:57.016Z,101065.92
2023-04-20T03:53:34.873Z,101070.54
2023-04-20T03:57:09.531Z,101078.74
2023-04-20T04:01:13.028Z,101079.95
2023-04-20T04:04:32.028Z,101080.45
2023-04-20T04:08:33.890Z,101078.77
2023-04-20T04:12:15.458Z,101075.81
2023-04-20T04:15:32.082Z,101073.96
2023-04-20T04:19:28.298Z,101072.04
2023-04-20T04:23:14.287Z,101074.91
2023-04-20T04:26:56.170Z,101071.02
2023-04-20T04:30:16.752Z,101069.12
2023-04-20T04:34:10.146Z,101071.99
2023-04-20T04:37:47.460Z,101077.94
2023-04-20T04:41:23.815Z,101076.81
2023-04-20T04:45:13.011Z,101082.31
2023-04-20T04:48:40.035Z,101086.17
2023-04-20T04:52:16.570Z,101092.20
2023-04-20T04:55:55.176Z,101096.83
2023-04-20T04:59:32.113Z,101099.59
2023-04-20T05:02:56.926Z,101102.45
2023-04-20T05:06:40.529Z,101102.61
2023-04-20T05:10:14.123Z,101105.00
2023-04-20T05:13:50.041Z,101110.62
2023-04-20T05:17:23.672Z,101113.20
2023-04-20T05:21:25.699Z,101111.94
2023-04-20T05:24:45.947Z,101112.73
2023-04-20T05:28:42.140Z,101115.13
2023-04-20T05:32:18.250Z,101118.19
2023-04-20T05:35:57.405Z,101121.17
2023-04-20T05:39:17.164Z,101124.57
2023-04-20T05:42:54.595Z,101127.06
2023-04-20T05:46:30.671Z,101129.36
2023-04-20T05:50:15.479Z,101133.61
2023-04-20T05:54:07.820Z,101132.71
2023-04-20T05:57:30.938Z,101131.16
2023-04-20T06:01:09.658Z,101134.88
2023-04-20T06:04:56.380Z,101131.86
2023-04-20T06:08:41.783Z,101134.13
2023-04-20T06:12:21.926Z,101137.77
2023-04-20T06:15:57.235Z,101139.55
2023-04-20T06:19:34.026Z,101134.35
2023-04-20T06:23:11.652Z,101138.02
2023-04-20T06:26:50.431Z,101138.16
2023-04-20T06:30:27.096Z,101136.52
2023-04-20T06:34:04.717Z,101134.45
2023-04-20T06:37:25.973Z,101133.41
2023-04-20T06:41:02.806Z,101137.79
2023-04-20T06:45:06.592Z,101137.04
2023-04-20T06:48:45.837Z,101138.36
2023-04-20T06:52:20.918Z,101133.59
2023-04-20T06:55:44.178Z,101135.04
2023-04-20T06:59:18.810Z,101133.33
2023-04-20T07:03:05.090Z,101135.35
2023-04-20T07:06:58.325Z,101132.46
2023-04-20T07:10:19.187Z,101136.55
2023-04-20T07:13:57.823Z,101138.35
2023-04-20T07:17:52.792Z,101132.82
2023-04-20T07:21:31.004Z,101133.27
2023-04-20T07:24:50.079Z,101135.70
2023-04-20T07:28:28.534Z,101136.52
2023-04-20T07:32:23.318Z,101134.09
2023-04-20T07:36:00.316Z,101132.16
2023-04-20T07:39:47.738Z,101128.90
2023-04-20T07:43:13.715Z,101128.66
2023-04-20T07:46:54.211Z,101131.77
2023-04-20T07:50:29.045Z,101135.46
2023-04-20T07:54:08.634Z,101136.44
2023-04-20T07:57:32.988Z,101136.74
2023-04-20T08:01:07.180Z,101138.11
2023-04-20T08:04:49.139Z,101143.17
2023-04-20T08:08:37.443Z,101141.65
2023-04-20T08:12:00.687Z,101138.03
2023-04-20T08:15:37.956Z,101130.54
2023-04-20T08:19:31.508Z,101129.27
2023-04-20T08:23:11.216Z,101132.54
2023-04-20T08:26:30.231Z,101141.46
2023-04-20T08:30:16.518Z,101139.67
2023-04-20T08:34:08.454Z,101138.42
2023-04-20T08:37:47.147Z,101146.77
2023-04-20T08:41:35.101Z,101145.98
2023-04-20T08:44:43.809Z,101138.51
2023-04-20T08:48:47.945Z,101138.43
2023-04-20T08:52:06.408Z,101142.79
2023-04-20T08:55:43.771Z,101136.88
2023-04-20T08:59:32.578Z,101141.05
2023-04-20T09:03:14.660Z,101134.64
2023-04-20T09:06:55.728Z,101139.61
2023-04-20T09:10:41.511Z,101136.40
2023-04-20T09:14:14.376Z,101137.11
2023-04-20T09:17:41.574Z,101133.55
2023-04-20T09:21:12.136Z,101129.40
2023-04-20T09:25:13.264Z,101133.16
2023-04-20T09:28:48.130Z,101131.27
2023-04-20T09:32:23.157Z,101122.49
2023-04-20T09:36:04.976Z,101134.45
2023-04-20T09:39:17.829Z,101132.40
2023-04-20T09:43:15.274Z,101133.42
2023-04-20T09:46:46.798Z,101132.67
2023-04-20T09:50:31.995Z,101140.19
2023-04-20T09:54:05.775Z,101140.09
2023-04-20T09:57:40.966Z,101139.00
2023-04-20T10:01:20.296Z,101129.05
2023-04-20T10:04:58.252Z,101129.46
2023-04-20T10:08:45.378Z,101134.29
2023-04-20T10:12:16.434Z,101135.03
2023-04-20T10:15:48.523Z,101129.55
2023-04-20T10:19:40.154Z,101126.02
2023-04-20T10:23:15.415Z,101126.27
2023-04-20T10:26:53.519Z,101127.25
2023-04-20T10:30:24.086Z,101123.69
2023-04-20T10:33:57.016Z,101122.09
2023-04-20T10:37:50.790Z,101119.52
2023-04-20T10:41:14.003Z,101115.37
2023-04-20T10:44:35.473Z,101120.14
2023-04-20T10:48:35.998Z,101113.59
2023-04-20T10:52:13.844Z,101113.27
2023-04-20T10:56:01.485Z,101105.67
2023-04-20T10:59:25.323Z,101100.36
2023-04-20T11:03:07.778Z,101104.23
2023-04-20T11:06:56.213Z,101109.72
2023-04-20T11:10:24.339Z,101106.80
2023-04-20T11:14:11.689Z,101107.23
2023-04-20T11:17:38.466Z,101099.52
2023-04-20T11:21:00.641Z,101098.55
2023-04-20T11:25:05.191Z,101094.06
2023-04-20T11:28:35.414Z,101086.51
2023-04-20T11:32:10.527Z,101090.82
2023-04-20T11:35:49.638Z,101088.27
2023-04-20T11:39:14.360Z,101087.77
2023-04-20T11:42:57.336Z,101100.99
2023-04-20T11:47:08.773Z,101093.52
2023-04-20T11:50:46.456Z,101092.77
2023-04-20T11:54:23.187Z,101084.36
2023-04-20T11:57:52.900Z,101083.98
2023-04-20T12:01:14.140Z,101072.39
2023-04-20T12:05:09.379Z,101060.02
2023-04-20T12:08:53.340Z,101064.66
2023-04-20T12:12:22.918Z,101052.31
2023-04-20T12:16:00.834Z,101053.80
2023-04-20T12:19:21.661Z,101054.45
2023-04-20T12:23:15.179Z,101059.66
2023-04-20T12:26:38.830Z,101064.25
2023-04-20T12:30:43.277Z,101065.40
2023-04-20T12:34:20.220Z,101060.41
2023-04-20T12:37:57.942Z,101051.64
2023-04-20T12:41:40.559Z,101043.13
2023-04-20T12:45:13.354Z,101038.08
2023-04-20T12:49:01.125Z,101045.36
2023-04-20T12:52:26.757Z,101042.86
2023-04-20T12:55:55.210Z,101041.23
2023-04-20T12:59:42.494Z,101041.98
2023-04-20T13:03:23.210Z,101042.73
2023-04-20T13:07:08.058Z,101033.00
2023-04-20T13:10:47.611Z,101033.29
2023-04-20T13:14:15.336Z,101028.41
2023-04-20T13:17:36.081Z,101022.95
2023-04-20T13:21:23.711Z,101021.30
2023-04-20T13:24:49.529Z,101021.90
2023-04-20T13:28:51.009Z,101022.44
2023-04-20T13:32:28.719Z,101018.87
2023-04-20T13:35:49.716Z,101020.79
2023-04-20T13:39:42.357Z,101020.84
2023-04-20T13:43:21.541Z,101016.75
2023-04-20T13:46:52.714Z,101005.80
2023-04-20T13:50:47.298Z,101004.55
2023-04-20T13:54:25.361Z,101003.34
2023-04-20T13:57:53.654Z,101002.22
2023-04-20T14:01:30.987Z,101005.34
2023-04-20T14:05:09.771Z,101009.42
2023-04-20T14:08:45.698Z,101015.77
2023-04-20T14:12:27.770Z,101020.58
2023-04-20T14:15:46.036Z,101020.20
2023-04-20T14:19:39.048Z,101024.80
2023-04-20T14:23:00.848Z,101020.23
2023-04-20T14:26:54.280Z,101016.77
2023-04-20T14:30:25.360Z,101013.58
2023-04-20T14:34:02.960Z,101017.14
2023-04-20T14:37:47.640Z,101011.75
2023-04-20T14:41:26.290Z,101011.77
2023-04-20T14:44:45.158Z,101011.85
2023-04-20T14:48:29.788Z,101007.58
2023-04-20T14:52:07.920Z,101007.73
2023-04-20T14:55:45.281Z,101004.89
2023-04-20T14:59:24.618Z,101004.20
2023-04-20T15:03:02.308Z,101007.26
2023-04-20T15:06:42.109Z,101007.27
2023-04-20T15:10:14.960Z,101001.48
2023-04-20T15:14:03.080Z,101000.88
2023-04-20T15:17:54.075Z,101003.59
2023-04-20T15:21:15.551Z,101006.23
2023-04-20T15:24:52.541Z,101009.00
2023-04-20T15:28:40.703Z,101008.64
2023-04-20T15:32:16.528Z,101006.86
2023-04-20T15:35:53.934Z,101010.63
2023-04-20T15:39:30.626Z,101011.27
2023-04-20T15:43:09.082Z,101012.69
2023-04-20T15:46:55.987Z,101013.58
2023-04-20T15:50:23.720Z,101014.11
2023-04-20T15:54:01.769Z,101011.64
2023-04-20T15:57:47.017Z,101011.98
2023-04-20T16:01:22.846Z,101008.71
2023-04-20T16:05:09.657Z,101013.66
2023-04-20T16:08:49.589Z,101015.36
2023-04-20T16:12:23.044Z,101016.16
2023-04-20T16:16:27.656Z,101013.92
2023-04-20T16:19:46.570Z,101016.29
2023-04-20T16:23:19.976Z,101019.11
2023-04-20T16:27:01.085Z,101016.09
2023-04-20T16:30:46.336Z,101015.48
2023-04-20T16:34:08.232Z,101015.69
2023-04-20T16:37:53.281Z,101018.40
2023-04-20T16:41:31.724Z,101019.44
2023-04-20T16:45:09.943Z,101021.28
2023-04-20T16:49:03.645Z,101025.05
2023-04-20T16:52:50.652Z,101031.87
2023-04-20T16:56:02.408Z,101036.61
2023-04-20T16:59:49.198Z,101036.02
2023-04-20T17:03:33.819Z,101039.65
2023-04-20T17:07:12.872Z,101044.00
2023-04-20T17:10:49.207Z,101039.90
2023-04-20T17:14:36.473Z,101049.31
2023-04-20T17:18:03.893Z,101056.04
2023-04-20T17:21:44.620Z,101057.57
2023-04-20T17:25:30.284Z,101060.49
2023-04-20T17:28:58.872Z,101057.98
2023-04-20T17:32:22.233Z,101062.98
2023-04-20T17:36:00.155Z,101063.88
2023-04-20T17:40:00.861Z,101067.17
2023-04-20T17:43:12.750Z,101067.50
2023-04-20T17:46:48.575Z,101070.23
2023-04-20T17:50:58.866Z,101078.10
2023-04-20T17:54:11.420Z,101080.02
2023-04-20T17:58:13.954Z,101085.42
2023-04-20T18:01:34.943Z,101087.21
2023-04-20T18:05:11.656Z,101085.49
2023-04-20T18:08:57.010Z,101086.00
2023-04-20T18:12:53.161Z,101086.49
2023-04-20T18:16:10.946Z,101089.79
2023-04-20T18:20:00.052Z,101089.30
2023-04-20T18:23:34.997Z,101094.95
2023-04-20T18:27:29.506Z,101095.88
2023-04-20T18:30:50.324Z,101099.69
2023-04-20T18:34:29.981Z,101102.20
2023-04-20T18:38:13.948Z,101100.70
2023-04-20T18:41:56.837Z,101102.81
2023-04-20T18:45:42.856Z,101101.80
2023-04-20T18:49:36.161Z,101104.81
2023-04-20T18:53:00.308Z,101109.08
2023-04-20T18:56:34.773Z,101110.36
2023-04-20T19:00:14.270Z,101115.38
2023-04-20T19:04:17.275Z,101116.68
2023-04-20T19:07:45.508Z,101115.41
2023-04-20T19:11:22.614Z,101118.67
2023-04-20T19:15:01.632Z,101117.36
2023-04-20T19:18:39.021Z,101122.11
2023-04-20T19:22:15.737Z,101124.34
2023-04-20T19:25:57.328Z,101127.95
2023-04-20T19:29:29.011Z,101127.10
2023-04-20T19:32:52.717Z,101131.77
2023-04-20T19:36:27.442Z,101130.20
2023-04-20T19:40:24.251Z,101130.88
2023-04-20T19:43:48.888Z,101133.22
2023-04-20T19:47:48.428Z,101129.84
2023-04-20T19:51:30.517Z,101131.77
2023-04-20T19:55:10.708Z,101127.03
2023-04-20T19:58:24.678Z,101133.51
2023-04-20T20:02:19.394Z,101135.43
2023-04-20T20:05:59.565Z,101134.34
2023-04-20T20:09:25.937Z,101134.27
2023-04-20T20:13:38.957Z,101137.83
2023-04-20T20:16:49.654Z,101136.98
2023-04-20T20:20:46.197Z,101136.73
2023-04-20T20:24:24.593Z,101135.71
2023-04-20T20:27:44.927Z,101138.16
2023-04-20T20:31:41.957Z,101137.21
2023-04-20T20:34:49.645Z,101140.30
2023-04-20T20:38:43.272Z,101140.23
2023-04-20T20:42:30.856Z,101136.95
2023-04-20T20:45:42.526Z,101138.42
2023-04-20T20:49:23.591Z,101140.79
2023-04-20T20:53:12.393Z,101138.07
2023-04-20T20:56:45.335Z,101137.91
2023-04-20T21:00:38.373Z,101141.59
2023-04-20T21:03:58.687Z,101141.53
2023-04-20T21:07:28.107Z,101144.05
2023-04-20T21:11:06.879Z,101142.11
2023-04-20T21:14:53.466Z,101146.23
2023-04-20T21:18:38.177Z,101141.16
2023-04-20T21:22:17.388Z,101140.42
2023-04-20T21:25:35.572Z,101142.32
2023-04-20T21:29:30.284Z,101142.17
2023-04-20T21:32:57.712Z,101142.38
2023-04-20T21:36:42.431Z,101138.60
2023-04-20T21:40:20.336Z,101136.27
2023-04-20T21:44:22.787Z,101139.52
2023-04-20T21:47:57.733Z,101139.73
2023-04-20T21:51:37.223Z,101139.29
2023-04-20T21:55:15.083Z,101134.95
2023-04-20T21:59:02.798Z,101131.25
2023-04-20T22:02:17.255Z,101129.36
2023-04-20T22:06:08.134Z,101132.92
2023-04-20T22:09:38.968Z,101134.71
2023-04-20T22:13:08.172Z,101136.52
2023-04-20T22:17:01.266Z,101136.42
2023-04-20T22:20:38.184Z,101139.34
2023-04-20T22:24:00.968Z,101136.34
2023-04-20T22:27:37.002Z,101138.85
2023-04-20T22:31:22.666Z,101140.30
2023-04-20T22:35:03.044Z,101139.02
2023-04-20T22:38:51.883Z,101138.43
2023-04-20T22:42:13.041Z,101142.71
2023-04-20T22:45:58.684Z,101143.38
2023-04-20T22:49:37.540Z,101148.38
2023-04-20T22:53:13.846Z,101145.14
2023-04-20T22:57:05.663Z,101142.59
2023-04-20T23:00:28.597Z,101145.79
2023-04-20T23:04:04.336Z,101143.96
2023-04-20T23:07:53.912Z,101140.57
2023-04-20T23:11:42.896Z,101139.08
2023-04-20T23:15:25.270Z,101137.91
2023-04-20T23:18:59.378Z,101138.94
2023-04-20T23:22:20.196Z,101140.83
2023-04-20T23:25:57.697Z,101141.73
2023-04-20T23:29:39.236Z,101141.56
2023-04-20T23:33:14.807Z,101138.78
2023-04-20T23:36:51.741Z,101137.88
2023-04-20T23:40:36.624Z,101139.11
2023-04-20T23:44:16.254Z,101134.77
2023-04-20T23:47:44.958Z,101138.30
2023-04-20T23:51:19.520Z,101133.47
2023-04-20T23:55:04.380Z,101135.62
2023-04-20T23:58:59.169Z,101133.73
